createdAt,value
2023-04-17T00:00:14.847Z,99.77
2023-04-17T00:01:15.543Z,99.66
2023-04-17T00:02:16.226Z,99.56
2023-04-17T00:03:17.080Z,99.56
2023-04-17T00:04:17.333Z,99.66
2023-04-17T00:05:17.520Z,99.77
2023-04-17T00:06:17.626Z,99.77
2023-04-17T00:07:18.248Z,99.97
2023-04-17T00:08:18.952Z,99.87
2023-04-17T00:09:19.582Z,99.77
2023-04-17T00:10:20.204Z,99.87
2023-04-17T00:11:20.835Z,99.97
2023-04-17T00:12:21.469Z,99.99
2023-04-17T00:13:22.105Z,99.99
2023-04-17T00:14:22.743Z,99.99
2023-04-17T00:15:23.382Z,99.99
2023-04-17T00:16:24.082Z,99.99
2023-04-17T00:17:24.779Z,99.97
2023-04-17T00:18:25.413Z,99.99
2023-04-17T00:19:26.046Z,99.97
2023-04-17T00:20:26.673Z,99.99
2023-04-17T00:21:27.287Z,99.99
2023-04-17T00:22:27.912Z,99.99
2023-04-17T00:23:28.546Z,99.99
2023-04-17T00:24:29.167Z,99.99
2023-04-17T00:25:29.803Z,99.99
2023-04-17T00:26:30.425Z,99.99
2023-04-17T00:27:31.033Z,99.99
2023-04-17T00:28:31.655Z,99.99
2023-04-17T00:29:32.311Z,99.99
2023-04-17T00:30:32.937Z,99.99
2023-04-17T00:31:33.588Z,99.99
2023-04-17T00:32:34.331Z,99.99
2023-04-17T00:33:34.412Z,99.99
2023-04-17T00:34:35.056Z,99.99
2023-04-17T00:35:35.686Z,99.99
2023-04-17T00:36:36.324Z,99.99
2023-04-17T00:37:36.965Z,99.99
2023-04-17T00:38:37.585Z,99.99
2023-04-17T00:39:38.204Z,99.99
2023-04-17T00:40:38.830Z,99.99
2023-04-17T00:41:39.545Z,99.99
2023-04-17T00:42:39.701Z,99.99
2023-04-17T00:43:40.331Z,99.99
2023-04-17T00:44:40.963Z,99.99
2023-04-17T00:45:41.685Z,99.99
2023-04-17T00:46:41.771Z,99.99
2023-04-17T00:47:42.452Z,99.99
2023-04-17T00:48:43.107Z,99.99
2023-04-17T00:49:43.745Z,99.99
2023-04-17T00:50:44.390Z,99.99
2023-04-17T00:51:45.343Z,99.99
2023-04-17T00:52:45.702Z,99.99
2023-04-17T00:53:45.749Z,99.99
2023-04-17T00:54:46.389Z,99.99
2023-04-17T00:55:47.038Z,99.99
2023-04-17T00:56:47.653Z,99.99
2023-04-17T00:57:48.292Z,99.99
2023-04-17T00:58:48.924Z,99.99
2023-04-17T00:59:49.559Z,99.99
2023-04-17T01:00:50.226Z,99.99
2023-04-17T01:01:50.932Z,99.99
2023-04-17T01:02:51.165Z,99.99
2023-04-17T01:03:51.487Z,99.99
2023-04-17T01:04:51.657Z,99.99
2023-04-17T01:05:52.267Z,99.99
2023-04-17T01:06:52.892Z,99.99
2023-04-17T01:07:53.502Z,99.99
2023-04-17T01:08:54.123Z,99.99
2023-04-17T01:09:54.769Z,99.99
2023-04-17T01:10:55.395Z,99.99
2023-04-17T01:11:56.053Z,99.99
2023-04-17T01:15:34.066Z,99.99
2023-04-17T01:16:35.318Z,99.99
2023-04-17T01:17:35.363Z,99.99
2023-04-17T01:18:35.947Z,99.99
2023-04-17T01:19:36.499Z,99.99
2023-04-17T01:20:37.096Z,99.99
2023-04-17T01:21:37.664Z,99.99
2023-04-17T01:22:38.217Z,99.99
2023-04-17T01:23:38.309Z,99.99
2023-04-17T01:24:38.889Z,99.99
2023-04-17T01:25:39.435Z,99.99
2023-04-17T01:26:39.992Z,99.99
2023-04-17T01:27:40.540Z,99.99
2023-04-17T01:28:41.088Z,99.99
2023-04-17T01:29:41.641Z,99.99
2023-04-17T01:30:42.243Z,99.99
2023-04-17T01:31:42.235Z,99.99
2023-04-17T01:32:42.836Z,99.99
2023-04-17T01:33:42.819Z,99.99
2023-04-17T01:34:43.370Z,99.99
2023-04-17T01:35:43.959Z,99.96
2023-04-17T01:36:44.528Z,99.99
2023-04-17T01:37:45.086Z,99.99
2023-04-17T01:38:45.652Z,99.99
2023-04-17T01:39:46.212Z,99.99
2023-04-17T01:40:46.784Z,99.99
2023-04-17T01:41:47.348Z,99.81
2023-04-17T01:42:47.909Z,99.81
2023-04-17T01:43:48.460Z,99.71
2023-04-17T01:44:49.054Z,99.60
2023-04-17T01:45:49.637Z,99.60
2023-04-17T01:46:50.202Z,99.60
2023-04-17T01:47:50.850Z,99.65
2023-04-17T01:48:50.851Z,99.71
2023-04-17T01:49:51.394Z,99.71
2023-04-17T01:50:51.940Z,99.81
2023-04-17T01:51:52.523Z,99.91
2023-04-17T01:52:53.123Z,99.86
2023-04-17T01:53:53.698Z,99.99
2023-04-17T01:54:54.278Z,99.96
2023-04-17T01:55:54.874Z,99.96
2023-04-17T01:56:55.465Z,99.86
2023-04-17T01:57:56.059Z,99.86
2023-04-17T01:58:56.628Z,99.86
2023-04-17T01:59:57.213Z,99.86
2023-04-17T02:00:57.821Z,99.76
2023-04-17T02:01:58.457Z,99.86
2023-04-17T02:02:58.551Z,99.86
2023-04-17T02:03:58.701Z,99.96
2023-04-17T02:04:58.770Z,99.86
2023-04-17T02:05:59.349Z,99.71
2023-04-17T02:06:59.939Z,99.71
2023-04-17T02:08:00.493Z,99.65
2023-04-17T02:09:01.062Z,99.86
2023-04-17T02:10:01.658Z,99.76
2023-04-17T02:11:01.692Z,99.99
2023-04-17T02:12:02.261Z,99.99
2023-04-17T02:13:02.820Z,99.99
2023-04-17T02:14:03.374Z,99.99
2023-04-17T02:15:03.962Z,99.96
2023-04-17T02:16:04.550Z,99.99
2023-04-17T02:17:05.142Z,99.99
2023-04-17T02:18:05.716Z,99.99
2023-04-17T02:19:06.311Z,99.99
2023-04-17T02:20:06.933Z,99.99
2023-04-17T02:21:06.920Z,99.99
2023-04-17T02:22:07.496Z,99.99
2023-04-17T02:23:08.078Z,99.99
2023-04-17T02:24:08.645Z,99.99
2023-04-17T02:25:09.197Z,99.99
2023-04-17T02:26:09.777Z,99.99
2023-04-17T02:27:10.358Z,99.99
2023-04-17T02:28:10.927Z,99.99
2023-04-17T02:29:11.734Z,99.99
2023-04-17T02:30:11.933Z,99.99
2023-04-17T02:31:12.590Z,99.99
2023-04-17T02:32:12.578Z,99.76
2023-04-17T02:33:13.135Z,99.80
2023-04-17T02:34:13.673Z,99.55
2023-04-17T02:35:14.228Z,99.44
2023-04-17T02:36:14.785Z,99.44
2023-04-17T02:37:15.325Z,99.44
2023-04-17T02:38:15.935Z,99.44
2023-04-17T02:39:16.500Z,99.44
2023-04-17T02:40:17.075Z,99.44
2023-04-17T02:41:17.648Z,99.34
2023-04-17T02:42:18.239Z,99.34
2023-04-17T02:43:18.792Z,99.34
2023-04-17T02:44:19.335Z,99.24
2023-04-17T02:45:19.895Z,99.24
2023-04-17T02:46:20.478Z,99.34
2023-04-17T02:47:21.055Z,99.24
2023-04-17T02:48:21.633Z,99.24
2023-04-17T02:49:22.199Z,99.44
2023-04-17T02:50:22.780Z,99.55
2023-04-17T02:51:23.353Z,99.55
2023-04-17T02:52:23.893Z,99.55
2023-04-17T02:53:24.433Z,99.70
2023-04-17T02:54:24.982Z,99.80
2023-04-17T02:55:25.539Z,99.90
2023-04-17T02:56:26.090Z,99.90
2023-04-17T02:57:26.665Z,99.99
2023-04-17T02:58:27.227Z,99.99
2023-04-17T02:59:27.870Z,99.99
2023-04-17T03:00:27.752Z,99.99
2023-04-17T03:01:28.485Z,99.99
2023-04-17T03:02:28.615Z,99.99
2023-04-17T03:03:28.765Z,99.99
2023-04-17T03:04:28.864Z,99.99
2023-04-17T03:05:29.427Z,99.99
2023-04-17T03:06:29.984Z,99.99
2023-04-17T03:07:30.533Z,99.99
2023-04-17T03:08:33.076Z,99.99
2023-04-17T03:09:31.373Z,99.99
2023-04-17T03:10:31.931Z,99.90
2023-04-17T03:11:32.468Z,99.90
2023-04-17T03:12:33.012Z,99.80
2023-04-17T03:13:33.562Z,99.80
2023-04-17T03:14:34.138Z,99.76
2023-04-17T03:15:34.697Z,99.70
2023-04-17T03:16:35.322Z,99.65
2023-04-17T03:17:35.384Z,99.76
2023-04-17T03:18:35.386Z,99.55
2023-04-17T03:19:35.941Z,99.55
2023-04-17T03:20:36.560Z,99.44
2023-04-17T03:21:37.113Z,99.65
2023-04-17T03:22:37.686Z,99.55
2023-04-17T03:23:38.254Z,99.44
2023-04-17T03:24:38.800Z,99.55
2023-04-17T03:25:39.356Z,99.70
2023-04-17T03:26:39.919Z,99.55
2023-04-17T03:27:40.462Z,99.60
2023-04-17T03:28:41.010Z,99.44
2023-04-17T03:29:41.563Z,99.55
2023-04-17T03:30:42.112Z,99.44
2023-04-17T03:31:42.696Z,99.70
2023-04-17T03:32:43.330Z,99.65
2023-04-17T03:33:43.339Z,99.70
2023-04-17T03:34:43.910Z,99.76
2023-04-17T03:35:44.488Z,99.70
2023-04-17T03:36:45.042Z,99.49
2023-04-17T03:37:45.598Z,99.39
2023-04-17T03:38:46.157Z,99.39
2023-04-17T03:39:46.710Z,99.24
2023-04-17T03:40:47.308Z,99.18
2023-04-17T03:41:47.885Z,99.18
2023-04-17T03:42:48.462Z,99.18
2023-04-17T03:43:49.053Z,99.14
2023-04-17T03:44:49.645Z,99.14
2023-04-17T03:45:50.244Z,99.24
2023-04-17T03:46:50.812Z,99.24
2023-04-17T03:47:51.396Z,99.04
2023-04-17T03:48:51.980Z,99.14
2023-04-17T03:49:52.547Z,99.24
2023-04-17T03:50:53.099Z,99.39
2023-04-17T03:51:53.665Z,99.44
2023-04-17T03:52:54.222Z,99.44
2023-04-17T03:53:54.762Z,99.44
2023-04-17T03:54:55.316Z,99.44
2023-04-17T03:55:55.873Z,99.70
2023-04-17T03:56:56.439Z,99.65
2023-04-17T03:57:57.010Z,99.65
2023-04-17T03:58:57.571Z,99.65
2023-04-17T03:59:58.131Z,99.65
2023-04-17T04:00:58.714Z,99.76
2023-04-17T04:01:59.378Z,99.76
2023-04-17T04:02:59.605Z,99.90
2023-04-17T04:03:59.846Z,99.86
2023-04-17T04:04:59.966Z,99.96
2023-04-17T04:05:59.961Z,99.86
2023-04-17T04:07:00.500Z,99.76
2023-04-17T04:08:01.062Z,99.80
2023-04-17T04:09:01.607Z,99.49
2023-04-17T04:10:02.148Z,99.60
2023-04-17T04:11:02.727Z,99.60
2023-04-17T04:12:03.297Z,99.70
2023-04-17T04:13:03.863Z,99.80
2023-04-17T04:14:04.440Z,99.76
2023-04-17T04:15:04.994Z,99.70
2023-04-17T04:16:05.620Z,99.70
2023-04-17T04:17:05.585Z,99.76
2023-04-17T04:18:06.152Z,99.55
2023-04-17T04:19:06.754Z,99.44
2023-04-17T04:20:07.336Z,99.44
2023-04-17T04:21:07.910Z,99.44
2023-04-17T04:22:08.473Z,99.39
2023-04-17T04:23:09.042Z,99.34
2023-04-17T04:24:09.610Z,99.34
2023-04-17T04:25:10.248Z,99.14
2023-04-17T04:26:10.279Z,99.14
2023-04-17T04:27:10.817Z,99.24
2023-04-17T04:28:11.350Z,99.34
2023-04-17T04:29:12.129Z,99.24
2023-04-17T04:30:12.458Z,99.34
2023-04-17T04:31:13.059Z,99.44
2023-04-17T04:32:13.698Z,99.65
2023-04-17T04:33:13.667Z,99.55
2023-04-17T04:34:14.222Z,99.65
2023-04-17T04:35:14.804Z,99.55
2023-04-17T04:36:15.353Z,99.55
2023-04-17T04:37:16.136Z,99.65
2023-04-17T04:38:16.130Z,99.70
2023-04-17T04:39:16.692Z,99.76
2023-04-17T04:40:17.229Z,99.76
2023-04-17T04:41:17.778Z,99.86
2023-04-17T04:42:18.325Z,99.76
2023-04-17T04:43:21.668Z,99.65
2023-04-17T04:44:19.425Z,99.55
2023-04-17T04:45:19.991Z,99.44
2023-04-17T04:46:20.584Z,99.44
2023-04-17T04:47:21.182Z,99.55
2023-04-17T04:48:21.754Z,99.65
2023-04-17T04:49:22.320Z,99.55
2023-04-17T04:50:22.890Z,99.65
2023-04-17T04:51:23.440Z,99.65
2023-04-17T04:52:24.002Z,99.51
2023-04-17T04:53:24.574Z,99.40
2023-04-17T04:54:25.137Z,99.34
2023-04-17T04:55:25.720Z,99.34
2023-04-17T04:56:26.312Z,99.24
2023-04-17T04:57:26.873Z,99.24
2023-04-17T04:58:27.411Z,99.24
2023-04-17T04:59:27.966Z,99.34
2023-04-17T05:00:28.531Z,99.34
2023-04-17T05:01:29.192Z,99.44
2023-04-17T05:02:29.338Z,99.55
2023-04-17T05:03:29.469Z,99.76
2023-04-17T05:04:29.604Z,99.76
2023-04-17T05:05:29.653Z,99.65
2023-04-17T05:06:30.200Z,99.76
2023-04-17T05:07:30.773Z,99.86
2023-04-17T05:08:31.333Z,99.76
2023-04-17T05:09:31.872Z,99.65
2023-04-17T05:10:32.432Z,99.76
2023-04-17T05:11:32.977Z,99.55
2023-04-17T05:12:33.520Z,99.55
2023-04-17T05:13:34.068Z,99.55
2023-04-17T05:14:34.620Z,99.76
2023-04-17T05:15:35.166Z,99.86
2023-04-17T05:16:35.778Z,99.76
2023-04-17T05:17:35.802Z,99.65
2023-04-17T05:18:35.814Z,99.55
2023-04-17T05:19:36.377Z,99.44
2023-04-17T05:20:36.945Z,99.44
2023-04-17T05:21:37.507Z,99.55
2023-04-17T05:22:38.091Z,99.44
2023-04-17T05:23:38.654Z,99.55
2023-04-17T05:24:39.218Z,99.51
2023-04-17T05:25:39.809Z,99.55
2023-04-17T05:26:40.360Z,99.51
2023-04-17T05:27:40.929Z,99.44
2023-04-17T05:28:41.495Z,99.40
2023-04-17T05:29:42.077Z,99.19
2023-04-17T05:30:42.636Z,99.19
2023-04-17T05:31:43.324Z,99.19
2023-04-17T05:32:43.356Z,98.99
2023-04-17T05:33:43.960Z,99.19
2023-04-17T05:34:44.555Z,99.30
2023-04-17T05:35:45.105Z,99.40
2023-04-17T05:36:45.748Z,99.44
2023-04-17T05:37:45.774Z,99.65
2023-04-17T05:38:46.523Z,99.65
2023-04-17T05:39:46.529Z,99.76
2023-04-17T05:40:47.098Z,99.81
2023-04-17T05:41:47.651Z,99.65
2023-04-17T05:42:48.189Z,99.34
2023-04-17T05:43:48.756Z,99.44
2023-04-17T05:44:49.330Z,99.65
2023-04-17T05:45:49.935Z,99.76
2023-04-17T05:46:49.915Z,99.71
2023-04-17T05:47:50.536Z,99.81
2023-04-17T05:48:50.551Z,99.99
2023-04-17T05:49:51.120Z,99.99
2023-04-17T05:50:51.702Z,99.99
2023-04-17T05:51:52.264Z,99.91
2023-04-17T05:52:52.840Z,99.91
2023-04-17T05:53:53.431Z,99.96
2023-04-17T05:54:54.024Z,99.81
2023-04-17T05:55:54.597Z,99.71
2023-04-17T05:56:55.144Z,99.60
2023-04-17T05:57:58.029Z,99.71
2023-04-17T05:58:55.903Z,99.71
2023-04-17T05:59:56.469Z,99.71
2023-04-17T06:00:57.037Z,99.44
2023-04-17T06:01:57.648Z,99.40
2023-04-17T06:02:57.846Z,99.60
2023-04-17T06:03:58.416Z,99.71
2023-04-17T06:04:58.982Z,99.71
2023-04-17T06:05:59.109Z,99.81
2023-04-17T06:06:59.675Z,99.91
2023-04-17T06:08:00.250Z,99.91
2023-04-17T06:09:00.816Z,99.99
2023-04-17T06:10:01.437Z,99.99
2023-04-17T06:11:01.505Z,99.99
2023-04-17T06:12:01.518Z,99.91
2023-04-17T06:13:02.114Z,99.91
2023-04-17T06:14:02.686Z,99.91
2023-04-17T06:15:03.234Z,99.71
2023-04-17T06:16:03.805Z,99.81
2023-04-17T06:17:04.421Z,99.81
2023-04-17T06:18:04.518Z,99.60
2023-04-17T06:19:04.523Z,99.40
2023-04-17T06:20:05.114Z,99.51
2023-04-17T06:21:05.707Z,99.30
2023-04-17T06:22:06.286Z,99.19
2023-04-17T06:23:06.853Z,99.19
2023-04-17T06:24:07.439Z,99.30
2023-04-17T06:25:08.028Z,99.40
2023-04-17T06:26:08.594Z,99.40
2023-04-17T06:27:09.144Z,99.51
2023-04-17T06:28:09.714Z,99.71
2023-04-17T06:29:10.521Z,99.66
2023-04-17T06:30:11.671Z,99.81
2023-04-17T06:31:11.088Z,99.71
2023-04-17T06:32:11.676Z,99.30
2023-04-17T06:33:12.254Z,99.40
2023-04-17T06:34:12.823Z,99.40
2023-04-17T06:35:13.390Z,99.60
2023-04-17T06:36:13.961Z,99.40
2023-04-17T06:37:14.533Z,99.51
2023-04-17T06:38:15.108Z,99.60
2023-04-17T06:39:15.764Z,99.91
2023-04-17T06:40:15.782Z,99.81
2023-04-17T06:41:16.464Z,99.81
2023-04-17T06:42:16.466Z,99.87
2023-04-17T06:43:17.015Z,99.77
2023-04-17T06:44:17.592Z,99.77
2023-04-17T06:45:18.176Z,99.60
2023-04-17T06:46:18.792Z,99.46
2023-04-17T06:47:18.897Z,99.71
2023-04-17T06:48:18.913Z,99.66
2023-04-17T06:49:19.480Z,99.66
2023-04-17T06:50:20.028Z,99.91
2023-04-17T06:51:20.581Z,99.99
2023-04-17T06:52:21.160Z,99.99
2023-04-17T06:53:21.722Z,99.87
2023-04-17T06:54:22.280Z,99.56
2023-04-17T06:55:22.842Z,99.56
2023-04-17T06:56:23.420Z,99.35
2023-04-17T06:57:23.994Z,99.25
2023-04-17T06:58:24.544Z,99.15
2023-04-17T06:59:25.103Z,99.05
2023-04-17T07:00:25.688Z,99.25
2023-04-17T07:01:26.315Z,98.94
2023-04-17T07:02:26.536Z,98.79
2023-04-17T07:03:26.805Z,98.59
2023-04-17T07:04:26.890Z,98.79
2023-04-17T07:05:26.895Z,98.90
2023-04-17T07:06:27.467Z,98.84
2023-04-17T07:07:28.033Z,98.69
2023-04-17T07:08:28.603Z,98.49
2023-04-17T07:09:29.155Z,98.38
2023-04-17T07:10:29.736Z,98.18
2023-04-17T07:11:30.297Z,98.59
2023-04-17T07:12:30.857Z,99.10
2023-04-17T07:13:31.452Z,99.41
2023-04-17T07:14:31.473Z,99.31
2023-04-17T07:15:32.047Z,99.41
2023-04-17T07:16:32.673Z,99.62
2023-04-17T07:17:32.726Z,99.31
2023-04-17T07:18:32.722Z,99.21
2023-04-17T07:19:33.279Z,99.00
2023-04-17T07:20:33.826Z,99.31
2023-04-17T07:21:34.397Z,99.51
2023-04-17T07:22:34.972Z,99.72
2023-04-17T07:23:35.541Z,99.72
2023-04-17T07:24:36.108Z,99.82
2023-04-17T07:25:36.669Z,99.82
2023-04-17T07:26:37.222Z,99.21
2023-04-17T07:27:37.791Z,99.41
2023-04-17T07:28:38.372Z,99.37
2023-04-17T07:29:38.940Z,99.16
2023-04-17T07:30:39.506Z,98.96
2023-04-17T07:31:40.084Z,98.33
2023-04-17T07:32:40.127Z,98.24
2023-04-17T07:33:40.754Z,97.99
2023-04-17T07:34:40.743Z,97.27
2023-04-17T07:35:41.301Z,97.06
2023-04-17T07:36:41.858Z,96.95
2023-04-17T07:37:42.408Z,96.55
2023-04-17T07:38:42.961Z,96.30
2023-04-17T07:39:43.605Z,95.98
2023-04-17T07:40:43.496Z,95.68
2023-04-17T07:41:44.040Z,95.37
2023-04-17T07:42:44.543Z,95.17
2023-04-17T07:43:45.010Z,95.37
2023-04-17T07:44:45.508Z,95.68
2023-04-17T07:45:46.001Z,95.68
2023-04-17T07:46:46.526Z,95.68
2023-04-17T07:47:47.073Z,95.17
2023-04-17T07:48:47.614Z,94.96
2023-04-17T07:49:48.118Z,95.06
2023-04-17T07:50:48.582Z,94.96
2023-04-17T07:51:49.016Z,95.27
2023-04-17T07:52:49.481Z,95.32
2023-04-17T07:53:49.929Z,95.12
2023-04-17T07:54:50.374Z,94.61
2023-04-17T07:55:50.845Z,94.61
2023-04-17T07:56:51.286Z,94.51
2023-04-17T07:57:51.811Z,94.36
2023-04-17T07:58:52.279Z,94.20
2023-04-17T07:59:52.736Z,94.26
2023-04-17T08:00:53.225Z,94.05
2023-04-17T08:01:53.773Z,93.54
2023-04-17T08:02:54.407Z,93.64
2023-04-17T08:03:54.562Z,93.13
2023-04-17T08:04:54.677Z,92.97
2023-04-17T08:05:54.681Z,93.13
2023-04-17T08:06:54.731Z,94.05
2023-04-17T08:07:55.226Z,93.95
2023-04-17T08:08:55.682Z,94.15
2023-04-17T08:09:56.144Z,94.56
2023-04-17T08:10:56.703Z,94.15
2023-04-17T08:11:58.088Z,93.95
2023-04-17T08:12:57.072Z,94.32
2023-04-17T08:13:57.526Z,93.80
2023-04-17T08:14:57.990Z,92.78
2023-04-17T08:15:58.446Z,93.08
2023-04-17T08:16:58.972Z,92.53
2023-04-17T08:17:59.564Z,93.04
2023-04-17T08:18:59.532Z,93.35
2023-04-17T08:20:00.058Z,93.15
2023-04-17T08:21:00.552Z,92.36
2023-04-17T08:22:01.061Z,92.94
2023-04-17T08:23:01.649Z,93.04
2023-04-17T08:24:01.588Z,92.63
2023-04-17T08:25:02.193Z,91.09
2023-04-17T08:26:02.136Z,90.79
2023-04-17T08:27:02.643Z,92.22
2023-04-17T08:28:03.214Z,92.63
2023-04-17T08:29:03.737Z,92.47
2023-04-17T08:30:04.243Z,92.36
2023-04-17T08:31:04.806Z,91.96
2023-04-17T08:32:13.146Z,92.36
2023-04-17T08:33:04.936Z,93.08
2023-04-17T08:34:13.599Z,93.70
2023-04-17T08:35:05.071Z,93.90
2023-04-17T08:36:08.468Z,93.90
2023-04-17T08:37:05.803Z,93.08
2023-04-17T08:38:06.317Z,93.08
2023-04-17T08:39:06.796Z,92.57
2023-04-17T08:40:07.267Z,92.12
2023-04-17T08:41:07.743Z,92.36
2023-04-17T08:42:08.436Z,93.15
2023-04-17T08:43:08.764Z,92.83
2023-04-17T08:44:09.282Z,93.35
2023-04-17T08:45:09.793Z,93.19
2023-04-17T08:46:10.320Z,91.86
2023-04-17T08:47:10.890Z,92.16
2023-04-17T08:48:11.364Z,92.68
2023-04-17T08:49:12.067Z,92.68
2023-04-17T08:50:12.066Z,92.88
2023-04-17T08:51:12.559Z,93.39
2023-04-17T08:52:13.061Z,93.04
2023-04-17T08:53:13.546Z,93.08
2023-04-17T08:54:14.017Z,92.57
2023-04-17T08:55:14.482Z,93.29
2023-04-17T08:56:14.961Z,93.49
2023-04-17T08:57:15.445Z,93.29
2023-04-17T08:58:15.919Z,92.47
2023-04-17T08:59:16.466Z,91.24
2023-04-17T09:00:16.989Z,92.68
2023-04-17T09:01:17.486Z,92.16
2023-04-17T09:02:18.147Z,92.47
2023-04-17T09:03:18.328Z,91.96
2023-04-17T09:04:18.537Z,92.47
2023-04-17T09:05:18.581Z,91.65
2023-04-17T09:06:19.117Z,91.44
2023-04-17T09:07:19.664Z,91.71
2023-04-17T09:08:20.202Z,91.71
2023-04-17T09:09:20.736Z,91.91
2023-04-17T09:10:21.436Z,91.91
2023-04-17T09:11:21.396Z,92.02
2023-04-17T09:12:21.909Z,91.50
2023-04-17T09:13:22.410Z,91.09
2023-04-17T09:14:24.126Z,90.79
2023-04-17T09:15:23.208Z,90.79
2023-04-17T09:16:23.793Z,90.79
2023-04-17T09:17:23.737Z,90.79
2023-04-17T09:18:24.223Z,91.30
2023-04-17T09:19:24.719Z,91.61
2023-04-17T09:20:25.195Z,91.61
2023-04-17T09:21:25.682Z,91.40
2023-04-17T09:22:26.163Z,91.82
2023-04-17T09:23:26.638Z,92.12
2023-04-17T09:24:27.118Z,92.02
2023-04-17T09:25:27.603Z,92.22
2023-04-17T09:26:28.094Z,92.78
2023-04-17T09:27:28.552Z,92.06
2023-04-17T09:28:28.997Z,91.86
2023-04-17T09:29:29.439Z,92.27
2023-04-17T09:30:29.928Z,91.75
2023-04-17T09:31:30.532Z,92.57
2023-04-17T09:32:30.483Z,92.36
2023-04-17T09:33:30.951Z,92.27
2023-04-17T09:34:31.550Z,91.35
2023-04-17T09:35:31.489Z,91.08
2023-04-17T09:36:32.222Z,91.14
2023-04-17T09:37:32.170Z,91.96
2023-04-17T09:38:32.653Z,91.18
2023-04-17T09:39:33.138Z,91.49
2023-04-17T09:40:33.608Z,92.00
2023-04-17T09:41:34.078Z,92.10
2023-04-17T09:42:34.586Z,92.51
2023-04-17T09:43:35.051Z,92.57
2023-04-17T09:44:35.577Z,91.49
2023-04-17T09:45:36.111Z,91.38
2023-04-17T09:46:36.236Z,91.69
2023-04-17T09:47:36.826Z,91.80
2023-04-17T09:48:37.326Z,91.59
2023-04-17T09:49:37.791Z,91.75
2023-04-17T09:50:39.080Z,92.10
2023-04-17T09:51:38.655Z,91.18
2023-04-17T09:52:39.154Z,90.93
2023-04-17T09:53:39.617Z,91.24
2023-04-17T09:54:40.167Z,91.44
2023-04-17T09:55:40.106Z,91.03
2023-04-17T09:56:40.570Z,91.03
2023-04-17T09:57:42.790Z,90.32
2023-04-17T09:58:41.499Z,90.79
2023-04-17T09:59:42.044Z,89.97
2023-04-17T10:00:42.422Z,90.48
2023-04-17T10:01:42.530Z,90.37
2023-04-17T10:02:42.748Z,89.56
2023-04-17T10:03:42.975Z,89.97
2023-04-17T10:04:43.261Z,90.84
2023-04-17T10:05:43.282Z,89.21
2023-04-17T10:06:43.841Z,90.17
2023-04-17T10:07:43.824Z,90.48
2023-04-17T10:08:44.363Z,89.42
2023-04-17T10:09:44.850Z,89.83
2023-04-17T10:10:45.349Z,89.72
2023-04-17T10:11:45.837Z,88.70
2023-04-17T10:12:46.324Z,88.96
2023-04-17T10:13:46.860Z,88.24
2023-04-17T10:14:47.417Z,87.94
2023-04-17T10:15:47.924Z,88.35
2023-04-17T10:16:48.482Z,87.73
2023-04-17T10:17:48.457Z,87.63
2023-04-17T10:18:48.976Z,87.94
2023-04-17T10:19:49.462Z,88.24
2023-04-17T10:20:49.964Z,87.94
2023-04-17T10:21:50.561Z,88.10
2023-04-17T10:22:50.517Z,88.20
2023-04-17T10:23:51.048Z,88.00
2023-04-17T10:24:51.045Z,89.06
2023-04-17T10:25:51.044Z,89.06
2023-04-17T10:26:51.597Z,87.73
2023-04-17T10:27:51.584Z,87.43
2023-04-17T10:28:52.151Z,87.63
2023-04-17T10:29:52.688Z,88.35
2023-04-17T10:30:53.178Z,88.08
2023-04-17T10:31:53.762Z,89.17
2023-04-17T10:32:53.781Z,89.27
2023-04-17T10:33:53.737Z,88.45
2023-04-17T10:34:54.237Z,87.63
2023-04-17T10:35:54.746Z,88.04
2023-04-17T10:36:55.225Z,88.86
2023-04-17T10:37:55.691Z,88.56
2023-04-17T10:38:56.155Z,87.12
2023-04-17T10:39:56.684Z,88.04
2023-04-17T10:40:58.445Z,88.65
2023-04-17T10:41:57.551Z,89.23
2023-04-17T10:42:58.006Z,88.92
2023-04-17T10:43:58.517Z,88.00
2023-04-17T10:44:59.009Z,88.51
2023-04-17T10:45:59.599Z,88.82
2023-04-17T10:46:59.570Z,89.90
2023-04-17T10:48:00.135Z,88.94
2023-04-17T10:49:00.164Z,86.49
2023-04-17T10:50:00.723Z,87.16
2023-04-17T10:51:00.631Z,85.63
2023-04-17T13:19:48.908Z,82.96
2023-04-17T13:20:50.073Z,80.27
2023-04-17T13:21:50.650Z,82.37
2023-04-17T13:22:51.210Z,82.07
2023-04-17T13:23:51.769Z,80.50
2023-04-17T13:24:52.328Z,79.61
2023-04-17T13:25:52.883Z,78.72
2023-04-17T13:26:53.429Z,76.82
2023-04-17T13:27:53.934Z,76.85
2023-04-17T13:28:54.452Z,74.95
2023-04-17T13:29:54.957Z,74.68
2023-04-17T13:30:55.476Z,71.73
2023-04-17T13:31:55.966Z,69.54
2023-04-17T13:32:56.483Z,72.14
2023-04-17T13:33:56.437Z,72.11
2023-04-17T13:34:58.720Z,75.90
2023-04-17T13:35:57.103Z,75.70
2023-04-17T13:36:57.575Z,73.87
2023-04-17T13:37:58.089Z,74.62
2023-04-17T13:38:58.545Z,74.72
2023-04-17T13:39:59.030Z,75.46
2023-04-17T13:40:59.472Z,75.46
2023-04-17T13:41:59.922Z,76.92
2023-04-17T13:43:00.463Z,77.98
2023-04-17T13:44:00.410Z,77.30
2023-04-17T13:45:00.900Z,78.97
2023-04-17T13:46:01.426Z,79.00
2023-04-17T13:47:01.910Z,78.64
2023-04-17T13:48:02.422Z,80.10
2023-04-17T13:49:02.944Z,80.82
2023-04-17T13:50:03.465Z,81.12
2023-04-17T13:51:04.030Z,80.51
2023-04-17T13:52:04.549Z,81.23
2023-04-17T13:53:05.054Z,81.67
2023-04-17T13:54:05.554Z,80.55
2023-04-17T13:55:06.050Z,80.85
2023-04-17T13:56:06.564Z,79.83
2023-04-17T13:57:07.091Z,81.46
2023-04-17T13:58:07.600Z,81.87
2023-04-17T13:59:08.136Z,81.10
2023-04-17T14:00:08.694Z,82.22
2023-04-17T14:01:09.246Z,82.01
2023-04-17T14:02:09.875Z,81.16
2023-04-17T14:03:10.098Z,80.48
2023-04-17T14:04:10.502Z,80.79
2023-04-17T14:05:10.649Z,82.89
2023-04-17T14:06:10.632Z,82.01
2023-04-17T14:07:11.158Z,80.58
2023-04-17T14:08:11.716Z,81.30
2023-04-17T14:09:12.549Z,81.10
2023-04-17T14:10:12.729Z,81.71
2023-04-17T14:11:13.283Z,82.18
2023-04-17T14:12:13.840Z,80.75
2023-04-17T14:13:14.433Z,80.48
2023-04-17T14:14:15.009Z,81.77
2023-04-17T14:15:15.578Z,80.96
2023-04-17T14:16:16.413Z,81.12
2023-04-17T14:17:16.445Z,79.69
2023-04-17T14:18:16.987Z,81.02
2023-04-17T14:19:18.006Z,80.88
2023-04-17T14:20:18.159Z,80.07
2023-04-17T14:21:18.718Z,79.83
2023-04-17T14:22:19.286Z,80.91
2023-04-17T14:23:19.822Z,81.73
2023-04-17T14:24:20.368Z,80.68
2023-04-17T14:25:20.906Z,79.86
2023-04-17T14:26:21.446Z,78.94
2023-04-17T14:27:22.004Z,79.55
2023-04-17T14:28:22.563Z,79.75
2023-04-17T14:29:23.100Z,78.19
2023-04-17T14:30:23.641Z,78.19
2023-04-17T14:31:24.226Z,77.78
2023-04-17T14:32:24.835Z,76.97
2023-04-17T14:33:24.848Z,75.23
2023-04-17T14:34:25.472Z,76.97
2023-04-17T14:35:25.501Z,77.34
2023-04-17T14:36:26.100Z,74.73
2023-04-17T14:37:26.680Z,77.48
2023-04-17T14:38:27.248Z,76.05
2023-04-17T14:39:28.392Z,76.76
2023-04-17T14:40:27.818Z,77.37
2023-04-17T14:41:28.385Z,75.74
2023-04-17T14:42:28.453Z,75.64
2023-04-17T14:43:29.052Z,76.80
2023-04-17T14:44:29.628Z,75.48
2023-04-17T14:45:30.195Z,76.19
2023-04-17T14:46:30.901Z,77.00
2023-04-17T14:47:30.952Z,75.74
2023-04-17T14:48:34.376Z,76.22
2023-04-17T14:49:31.735Z,75.10
2023-04-17T14:50:32.802Z,75.60
2023-04-17T14:51:33.219Z,74.38
2023-04-17T14:52:32.584Z,75.06
2023-04-17T14:53:33.192Z,75.43
2023-04-17T14:54:33.210Z,74.48
2023-04-17T14:55:33.790Z,75.30
2023-04-17T14:56:34.349Z,73.57
2023-04-17T14:57:34.945Z,74.01
2023-04-17T14:58:35.516Z,73.60
2023-04-17T14:59:36.086Z,73.94
2023-04-17T15:00:36.672Z,73.64
2023-04-17T15:01:37.333Z,73.43
2023-04-17T15:02:37.425Z,75.16
2023-04-17T15:03:37.632Z,74.96
2023-04-17T15:04:37.774Z,74.55
2023-04-17T15:05:38.302Z,74.15
2023-04-17T15:06:38.823Z,73.94
2023-04-17T15:07:39.352Z,73.71
2023-04-17T15:08:39.938Z,74.15
2023-04-17T15:09:40.466Z,74.65
2023-04-17T15:10:50.651Z,74.04
2023-04-17T15:11:41.199Z,73.43
2023-04-17T15:12:41.748Z,73.36
2023-04-17T15:13:42.359Z,74.86
2023-04-17T15:14:42.321Z,74.25
2023-04-17T15:15:42.873Z,73.33
2023-04-17T15:16:43.498Z,72.62
2023-04-17T15:17:43.604Z,73.94
2023-04-17T15:18:43.630Z,73.06
2023-04-17T15:19:44.159Z,74.38
2023-04-17T15:20:44.213Z,73.77
2023-04-17T15:21:44.857Z,73.57
2023-04-17T15:22:44.825Z,74.08
2023-04-17T15:23:45.355Z,73.60
2023-04-17T15:24:45.890Z,75.34
2023-04-17T15:25:46.440Z,75.95
2023-04-17T15:26:46.963Z,74.32
2023-04-17T15:27:47.514Z,75.40
2023-04-17T15:28:48.057Z,74.73